Time;durP1;ratioP1;P1;durP2;ratioP2;P2;SDS_P1;SDS_P2;PMS_P1;PMS_P2;Temp;Humidity;BMP_temperature;BMP_pressure;BME280_temperature;BME280_humidity;BME280_pressure;Samples;Min_cycle;Max_cycle;Signal;HPM_P1;HPM_P2
2022/09/05 00:00:14;;;;;;;8.23;7.40;;;;;;;28.86;74.53;100765.50;5077866;27;70010;-31
2022/09/05 00:02:51;;;;;;;15.07;7.28;;;;;;;29.49;74.95;100865.78;5077352;28;66581;-30
2022/09/05 00:05:55;;;;;;;13.00;6.32;;;;;;;29.49;75.28;100868.47;5076994;28;70188;-32
2022/09/05 00:09:04;;;;;;;6.63;6.00;;;;;;;29.51;74.96;100865.59;5073026;28;66199;-32
2022/09/05 00:11:57;;;;;;;8.88;5.75;;;;;;;29.49;75.22;100867.66;5076479;28;70988;-30
2022/09/05 00:14:56;;;;;;;7.22;5.40;;;;;;;29.03;74.72;100799.16;5077857;27;67014;-31
2022/09/05 00:18:28;;;;;;;9.23;5.95;;;;;;;29.33;75.85;100864.34;5076835;28;70457;-31
2022/09/05 00:21:41;;;;;;;8.98;5.85;;;;;;;29.51;75.77;100887.22;5062894;28;67160;-31
2022/09/05 00:24:49;;;;;;;5.40;5.00;;;;;;;29.19;74.95;100814.09;5071928;28;70256;-39
2022/09/05 00:27:53;;;;;;;12.60;5.55;;;;;;;29.66;75.31;100877.00;5076255;28;67210;-33
2022/09/05 00:30:29;;;;;;;5.45;4.97;;;;;;;29.19;72.05;100808.69;5080151;28;71409;-33
2022/09/05 00:34:05;;;;;;;15.00;5.13;;;;;;;29.51;73.97;100884.50;5073049;28;65908;-31
2022/09/05 00:36:42;;;;;;;7.53;4.57;;;;;;;29.66;71.98;100890.50;5074554;28;70619;-32
2022/09/05 00:39:34;;;;;;;5.00;4.35;;;;;;;29.64;72.89;100892.59;5077048;28;66881;-31
2022/09/05 00:42:25;;;;;;;5.93;4.25;;;;;;;29.54;72.51;100881.38;5077125;28;70650;-38
2022/09/05 00:45:01;;;;;;;6.13;4.47;;;;;;;29.71;71.13;100888.00;5076378;28;66608;-31
2022/09/05 00:47:54;;;;;;;4.68;4.38;;;;;;;29.74;72.16;100892.16;5077221;27;68513;-32
2022/09/05 00:51:01;;;;;;;;;;;;;;;29.44;74.14;100902.59;5079432;28;66158;-31
2022/09/05 00:54:22;;;;;;;6.13;4.60;;;;;;;29.62;73.10;100900.06;5021505;28;70920;-31
2022/09/05 00:57:35;;;;;;;7.05;5.72;;;;;;;29.72;71.98;100911.28;5052211;27;66511;-32
2022/09/05 01:00:24;;;;;;;24.17;9.20;;;;;;;29.74;72.40;100914.63;5079135;27;69926;-31
2022/09/05 01:03:11;;;;;;;15.77;9.10;;;;;;;29.89;71.37;100921.66;5074173;28;67318;-31
2022/09/05 01:05:58;;;;;;;15.75;8.63;;;;;;;29.84;72.21;100920.44;5077609;27;71179;-32
2022/09/05 01:08:41;;;;;;;13.48;8.88;;;;;;;29.58;71.87;100869.09;5073525;28;66340;-32
2022/09/05 01:11:31;;;;;;;;;;;;;;;29.60;73.09;100926.47;5065538;28;70912;-32
2022/09/05 01:14:16;;;;;;;16.55;8.20;;;;;;;29.95;71.09;100918.09;5076053;28;66697;-33
2022/09/05 01:17:29;;;;;;;9.88;7.75;;;;;;;29.47;71.90;100853.53;5077262;28;70217;-30
2022/09/05 01:20:10;;;;;;;12.38;7.22;;;;;;;29.99;71.07;100919.34;5072846;28;66257;-32
2022/09/05 01:23:02;;;;;;;8.07;7.20;;;;;;;29.92;71.12;100921.22;5077652;27;69650;-32
2022/09/05 01:26:09;;;;;;;7.40;6.70;;;;;;;29.94;71.16;100929.97;5074840;28;66802;-31
2022/09/05 01:28:47;;;;;;;7.35;6.70;;;;;;;30.07;70.78;100935.34;5073775;28;71216;-31
2022/09/05 01:31:57;;;;;;;12.35;7.32;;;;;;;30.00;71.60;100938.03;5075887;28;67012;-31
2022/09/05 01:34:50;;;;;;;8.73;7.35;;;;;;;30.11;70.60;100925.72;5074558;28;70891;-30
2022/09/05 01:37:28;;;;;;;9.38;7.70;;;;;;;30.12;71.25;100932.00;5075978;28;66966;-31
2022/09/05 01:40:18;;;;;;;11.98;7.35;;;;;;;30.00;71.44;100907.47;5073483;27;70063;-31
2022/09/05 01:43:24;;;;;;;8.43;7.63;;;;;;;30.07;71.59;100924.50;5075440;28;67022;-31
2022/09/05 01:46:21;;;;;;;12.70;7.05;;;;;;;30.08;71.29;100920.75;5072016;28;70907;-32
2022/09/05 01:49:02;;;;;;;11.45;7.82;;;;;;;29.82;70.80;100864.91;5074821;28;67032;-32
2022/09/05 01:51:48;;;;;;;16.63;7.97;;;;;;;29.42;70.67;100801.97;5075506;28;70536;-31
2022/09/05 01:54:41;;;;;;;10.57;7.72;;;;;;;30.24;71.17;100933.84;5072829;28;66868;-31
2022/09/05 01:57:19;;;;;;;9.90;7.88;;;;;;;30.24;70.75;100936.53;5075284;28;71367;-31
2022/09/05 01:59:51;;;;;;;8.13;7.18;;;;;;;30.25;70.99;100932.78;5077642;27;67211;-32
2022/09/05 02:02:23;;;;;;;;;;;;;;;29.94;72.28;100925.38;5076032;28;70951;-32
2022/09/05 02:05:05;;;;;;;10.07;7.18;;;;;;;30.22;71.18;100933.22;5075575;28;67615;-31
2022/09/05 02:07:49;;;;;;;;;;;;;;;29.96;72.91;100927.88;5076902;28;70106;-31
2022/09/05 02:11:02;;;;;;;7.95;7.15;;;;;;;30.11;71.87;100930.31;5078569;28;67706;-36
2022/09/05 02:13:34;;;;;;;10.13;8.20;;;;;;;30.31;71.30;100930.25;5035203;28;70821;-32
2022/09/05 02:16:25;;;;;;;;;;;;;;;30.02;72.64;100927.03;5074776;27;66846;-33
2022/09/05 02:19:10;;;;;;;12.82;7.07;;;;;;;30.34;71.88;100925.28;5060356;28;70659;-31
2022/09/05 02:22:07;;;;;;;12.27;7.60;;;;;;;30.36;71.63;100927.75;5071436;27;66778;-33
2022/09/05 02:24:47;;;;;;;15.00;8.15;;;;;;;30.22;71.25;100889.91;5079868;27;70348;-32
2022/09/05 02:27:49;;;;;;;7.45;6.75;;;;;;;29.95;71.53;100848.63;5078550;28;66584;-31
2022/09/05 02:30:44;;;;;;;8.85;7.00;;;;;;;30.06;70.63;100852.50;5073337;27;70859;-32
2022/09/05 02:34:05;;;;;;;7.45;6.32;;;;;;;30.41;70.74;100926.03;5083229;27;67046;-32
2022/09/05 02:37:00;;;;;;;7.15;6.20;;;;;;;30.42;70.83;100926.88;5072430;28;70104;-31
2022/09/05 02:39:32;;;;;;;10.77;6.25;;;;;;;30.53;70.49;100934.31;5075696;28;66479;-32
2022/09/05 02:42:32;;;;;;;8.13;5.78;;;;;;;30.39;70.54;100917.31;5080310;28;70829;-32
2022/09/05 02:45:34;;;;;;;6.75;5.85;;;;;;;30.48;70.03;100932.28;5077234;28;66090;-33
2022/09/05 02:48:29;;;;;;;7.60;5.97;;;;;;;30.54;70.20;100941.41;5075546;27;70699;-32
2022/09/05 02:51:13;;;;;;;6.28;5.47;;;;;;;30.62;70.18;100943.84;5078517;28;66976;-32
2022/09/05 02:54:25;;;;;;;7.88;5.43;;;;;;;30.54;70.10;100941.41;5078901;27;70913;-31
2022/09/05 02:57:47;;;;;;;6.18;5.07;;;;;;;30.58;69.99;100937.19;5070060;28;67161;-32
2022/09/05 03:00:53;;;;;;;6.47;5.47;;;;;;;30.64;69.68;100936.31;5073521;28;70577;-33
2022/09/05 03:03:43;;;;;;;10.35;5.63;;;;;;;30.33;69.61;100874.88;5080933;28;67077;-31
2022/09/05 03:06:48;;;;;;;5.30;4.13;;;;;;;30.72;69.14;100941.47;5082513;27;70891;-33
2022/09/05 03:09:32;;;;;;;5.28;4.65;;;;;;;30.79;69.07;100932.50;5077993;28;66909;-32
2022/09/05 03:12:13;;;;;;;5.45;4.97;;;;;;;30.79;69.17;100938.75;5078942;28;70722;-32
2022/09/05 03:15:07;;;;;;;7.32;4.60;;;;;;;30.82;68.78;100932.09;5078010;28;65996;-33
2022/09/05 03:18:37;;;;;;;4.63;4.05;;;;;;;30.37;68.78;100868.00;5080141;28;70662;-31
2022/09/05 03:21:25;;;;;;;4.65;4.25;;;;;;;30.86;68.68;100917.06;5076125;28;66984;-32
2022/09/05 03:24:21;;;;;;;7.40;4.10;;;;;;;30.79;68.44;100906.25;5078178;27;70050;-32
2022/09/05 03:27:23;;;;;;;7.18;4.30;;;;;;;30.90;68.55;100918.28;5080581;28;66365;-33
2022/09/05 03:30:23;;;;;;;4.10;3.80;;;;;;;30.92;68.51;100916.19;5079485;28;70032;-32
2022/09/05 03:33:14;;;;;;;4.30;3.90;;;;;;;30.96;68.41;100922.84;5074401;28;66246;-32
2022/09/05 03:36:15;;;;;;;4.97;4.10;;;;;;;30.90;68.14;100919.13;5079054;28;70920;-32
2022/09/05 03:39:11;;;;;;;4.32;3.53;;;;;;;30.99;67.90;100906.13;5079294;28;66835;-32
2022/09/05 03:41:54;;;;;;;4.35;3.53;;;;;;;30.56;67.59;100832.88;5078567;28;70207;-33
2022/09/05 03:44:31;;;;;;;;;;;;;;;30.76;68.45;100905.84;5073905;28;67299;-32
2022/09/05 03:47:09;;;;;;;3.15;2.85;;;;;;;31.05;67.36;100899.81;5079610;28;70183;-32
2022/09/05 03:50:24;;;;;;;4.25;3.38;;;;;;;30.88;67.63;100885.19;5075072;28;67015;-31
2022/09/05 03:54:10;;;;;;;3.35;3.05;;;;;;;31.00;67.71;100894.22;5080373;28;71242;-32
2022/09/05 03:57:05;;;;;;;2.80;2.53;;;;;;;31.13;67.52;100896.84;5044155;28;66400;-33
2022/09/05 03:59:57;;;;;;;3.03;2.65;;;;;;;31.18;67.36;100901.59;5075682;28;69759;-32
2022/09/05 04:02:32;;;;;;;4.38;2.92;;;;;;;31.23;66.94;100898.22;5077837;27;66288;-32
2022/09/05 04:05:30;;;;;;;3.97;3.25;;;;;;;30.49;66.51;100778.81;5080321;27;70835;-34
2022/09/05 04:08:47;;;;;;;3.20;2.92;;;;;;;30.86;66.66;100843.94;5075123;28;67187;-32
2022/09/05 04:11:44;;;;;;;3.20;3.00;;;;;;;31.19;66.73;100888.88;5080752;28;70527;-32
2022/09/05 04:14:47;;;;;;;2.50;2.30;;;;;;;31.27;66.50;100888.59;5069557;27;66048;-33
2022/09/05 04:17:23;;;;;;;3.40;2.75;;;;;;;31.30;66.68;100867.28;5070512;28;70849;-32
2022/09/05 04:20:02;;;;;;;2.83;2.47;;;;;;;31.33;66.63;100874.97;5080914;27;65944;-33
2022/09/05 04:22:56;;;;;;;4.05;2.83;;;;;;;31.26;66.66;100862.53;5071170;28;71033;-33
2022/09/05 04:26:09;;;;;;;5.35;3.10;;;;;;;31.25;66.98;100871.72;5075836;28;66698;-34
2022/09/05 04:29:13;;;;;;;2.55;2.35;;;;;;;31.27;66.48;100858.78;5075994;28;70909;-33
2022/09/05 04:31:55;;;;;;;2.95;2.28;;;;;;;30.91;66.45;100789.94;5077979;28;66235;-35
2022/09/05 04:35:19;;;;;;;3.03;2.72;;;;;;;31.30;66.87;100858.34;5074027;27;71306;-33
2022/09/05 04:38:16;;;;;;;2.42;2.22;;;;;;;31.22;66.50;100816.09;5067447;28;66967;-31
2022/09/05 04:41:20;;;;;;;2.83;2.35;;;;;;;31.41;66.96;100833.22;5076543;28;70868;-33
2022/09/05 04:44:20;;;;;;;3.40;2.75;;;;;;;31.08;66.24;100779.34;5059116;28;66734;-31
2022/09/05 04:47:09;;;;;;;6.82;2.70;;;;;;;31.10;66.59;100780.78;5077981;27;70766;-31
2022/09/05 04:49:54;;;;;;;8.13;2.40;;;;;;;31.23;66.21;100781.69;5072129;28;66528;-35
2022/09/05 04:52:44;;;;;;;2.25;2.05;;;;;;;31.47;66.60;100818.78;5070063;28;70849;-33
2022/09/05 04:55:27;;;;;;;2.63;2.42;;;;;;;31.45;66.40;100818.16;5076297;28;65907;-35
2022/09/05 04:58:22;;;;;;;2.63;2.10;;;;;;;31.47;66.32;100809.81;5071302;28;70384;-33
2022/09/05 05:01:27;;;;;;;2.58;2.05;;;;;;;31.47;66.21;100783.53;5068814;28;66968;-33
2022/09/05 05:04:24;;;;;;;2.28;2.08;;;;;;;31.55;66.44;100764.25;5072103;28;70930;-33
2022/09/05 05:07:24;;;;;;;2.17;1.98;;;;;;;31.14;66.42;100692.56;5076395;28;67046;-32
2022/09/05 05:10:02;;;;;;;2.00;1.63;;;;;;;31.60;66.24;100756.25;5069695;28;70783;-33
2022/09/05 05:13:09;;;;;;;3.63;2.20;;;;;;;31.56;66.50;100749.63;5078479;28;66792;-33
2022/09/05 05:16:06;;;;;;;2.40;2.20;;;;;;;31.60;65.96;100744.59;5073412;27;70177;-32
2022/09/05 05:19:26;;;;;;;3.25;2.15;;;;;;;31.52;66.41;100737.59;5078557;27;67041;-33
2022/09/05 05:22:02;;;;;;;4.32;2.00;;;;;;;31.62;66.15;100726.19;5078962;28;70099;-33
2022/09/05 05:24:43;;;;;;;4.70;2.00;;;;;;;31.65;66.13;100731.19;5076959;28;66529;-33
2022/09/05 05:27:22;;;;;;;3.67;2.13;;;;;;;31.36;66.16;100663.13;5073605;28;70888;-33
2022/09/05 05:30:03;;;;;;;4.25;2.20;;;;;;;31.68;66.06;100719.00;5073985;28;66921;-33
2022/09/05 05:32:45;;;;;;;3.50;2.15;;;;;;;31.26;66.18;100635.75;5076726;28;71162;-32
2022/09/05 05:35:33;;;;;;;2.83;2.30;;;;;;;31.52;66.56;100687.97;5077588;28;66544;-33
2022/09/05 05:38:21;;;;;;;2.40;2.17;;;;;;;31.70;66.08;100692.50;5077914;27;70595;-35
2022/09/05 05:41:03;;;;;;;2.30;2.10;;;;;;;31.30;66.21;100631.50;5079216;28;66367;-32
2022/09/05 05:43:39;;;;;;;2.00;1.80;;;;;;;30.97;66.16;100566.91;5076224;28;70042;-33
2022/09/05 05:46:55;;;;;;;1.98;1.83;;;;;;;31.61;66.67;100687.41;5074015;28;43131;-33
2022/09/05 05:49:57;;;;;;;2.50;2.30;;;;;;;31.69;66.30;100677.31;5046629;28;70178;-33
2022/09/05 05:53:21;;;;;;;3.65;2.03;;;;;;;31.66;66.38;100672.34;5079734;27;66108;-32
2022/09/05 05:56:52;;;;;;;2.58;2.30;;;;;;;31.67;66.57;100665.84;5060030;27;70525;-32
2022/09/05 06:00:00;;;;;;;2.90;2.20;;;;;;;31.67;66.17;100655.00;5079251;27;65709;-33
2022/09/05 06:02:41;;;;;;;2.55;2.30;;;;;;;31.77;66.18;100652.56;5075487;28;70275;-34
2022/09/05 06:05:43;;;;;;;4.40;2.03;;;;;;;31.69;66.11;100626.59;5072247;28;67086;-33
2022/09/05 06:08:56;;;;;;;2.67;2.45;;;;;;;31.70;66.26;100620.09;5075988;27;70964;-34
2022/09/05 06:12:15;;;;;;;2.22;2.03;;;;;;;31.81;65.95;100629.34;5062380;28;66919;-32
2022/09/05 06:15:34;;;;;;;3.38;2.33;;;;;;;31.42;65.85;100568.41;5071751;28;70668;-32
2022/09/05 06:18:48;;;;;;;3.75;2.05;;;;;;;31.39;65.65;100556.16;5079000;27;66480;-33
2022/09/05 06:21:20;;;;;;;6.75;1.90;;;;;;;31.94;65.32;100610.16;5077808;27;70778;-31
2022/09/05 06:24:41;;;;;;;1.95;1.75;;;;;;;31.46;65.65;100535.19;5079616;27;66519;-32
2022/09/05 06:27:52;;;;;;;2.67;1.93;;;;;;;31.64;65.16;100552.44;5075616;28;70795;-33
2022/09/05 06:31:15;;;;;;;1.60;1.50;;;;;;;31.65;65.31;100535.09;5067580;27;66211;-33
2022/09/05 06:34:24;;;;;;;2.13;1.88;;;;;;;32.09;65.10;100595.31;5076018;28;71223;-33
2022/09/05 06:37:12;;;;;;;3.33;1.73;;;;;;;31.73;64.73;100521.19;5071553;28;66353;-32
2022/09/05 06:39:46;;;;;;;2.80;1.77;;;;;;;32.16;64.98;100582.47;5035405;28;69131;-32
2022/09/05 06:42:55;;;;;;;6.18;1.33;;;;;;;32.10;64.77;100589.66;5037629;28;66916;-32
2022/09/05 06:45:48;;;;;;;2.17;1.77;;;;;;;32.23;64.40;100585.88;5036568;28;69928;-33
2022/09/05 06:48:43;;;;;;;1.90;1.60;;;;;;;31.82;64.51;100514.38;5032793;28;66407;-33
2022/09/05 06:51:40;;;;;;;2.55;1.73;;;;;;;32.26;64.26;100585.41;5033984;28;70582;-32
2022/09/05 06:54:54;;;;;;;1.80;1.52;;;;;;;32.11;64.28;100572.31;5031598;28;67025;-33
2022/09/05 06:57:54;;;;;;;2.47;1.67;;;;;;;32.25;64.17;100578.31;5029490;28;70455;-33
2022/09/05 07:00:36;;;;;;;2.97;1.70;;;;;;;32.38;64.24;100569.13;5037554;28;66022;-33
2022/09/05 07:03:18;;;;;;;1.85;1.25;;;;;;;32.39;64.11;100574.28;5036887;28;70456;-34
2022/09/05 07:06:11;;;;;;;1.83;1.52;;;;;;;32.43;64.00;100559.19;5032145;28;66506;-33
2022/09/05 07:09:54;;;;;;;3.17;1.63;;;;;;;32.34;63.90;100554.34;5035346;28;71356;-33
2022/09/05 07:12:33;;;;;;;2.17;1.90;;;;;;;32.51;63.71;100549.88;4979173;28;66134;-32
2022/09/05 07:15:16;;;;;;;2.25;1.80;;;;;;;32.55;63.39;100536.66;5035898;28;71054;-33
2022/09/05 07:18:37;;;;;;;1.95;1.42;;;;;;;32.54;63.16;100533.13;5038426;28;66453;-33
2022/09/05 07:21:20;;;;;;;1.67;1.38;;;;;;;32.54;63.02;100521.41;5024424;28;70676;-33
2022/09/05 07:24:17;;;;;;;1.60;1.50;;;;;;;32.48;62.99;100512.34;5030789;28;66943;-32
2022/09/05 07:27:26;;;;;;;2.70;1.70;;;;;;;32.58;62.86;100495.44;5040474;28;69688;-33
2022/09/05 07:30:00;;;;;;;3.70;1.58;;;;;;;32.74;62.90;100521.03;5036584;28;66985;-32
2022/09/05 07:32:43;;;;;;;1.58;1.20;;;;;;;32.30;62.34;100453.59;5039123;28;70502;-33
2022/09/05 07:35:32;;;;;;;1.88;1.45;;;;;;;32.37;62.42;100456.97;5031688;28;66361;-31
2022/09/05 07:38:24;;;;;;;2.83;1.55;;;;;;;32.80;62.36;100520.88;5051521;28;70530;-32
2022/09/05 07:41:29;;;;;;;1.45;1.23;;;;;;;32.77;62.14;100515.94;5079578;28;66955;-32
2022/09/05 07:44:13;;;;;;;3.95;1.50;;;;;;;32.80;62.55;100504.56;5074910;28;70764;-33
2022/09/05 07:46:53;;;;;;;2.30;1.60;;;;;;;32.40;62.29;100434.81;5080577;28;66145;-32
2022/09/05 07:49:29;;;;;;;1.98;1.65;;;;;;;32.61;62.19;100473.25;5077982;28;70761;-33
2022/09/05 07:52:26;;;;;;;3.55;1.33;;;;;;;32.54;61.87;100434.53;5096025;27;67017;-33
2022/09/05 07:55:24;;;;;;;3.88;1.85;;;;;;;32.93;61.56;100485.28;5079375;28;70712;-32
2022/09/05 07:58:20;;;;;;;5.18;2.65;;;;;;;32.86;63.63;100492.72;5079755;28;66932;-33
2022/09/05 08:00:57;;;;;;;11.55;2.10;;;;;;;32.77;63.28;100483.34;5074885;28;70742;-33
2022/09/05 08:03:29;;;;;;;8.60;2.22;;;;;;;32.79;64.02;100502.94;5075066;28;66074;-32
2022/09/05 08:06:08;;;;;;;10.00;2.38;;;;;;;32.39;63.62;100438.56;5075507;27;70800;-33
2022/09/05 08:09:04;;;;;;;3.90;2.00;;;;;;;32.33;62.74;100434.09;5077591;28;67101;-34
2022/09/05 08:12:01;;;;;;;9.18;2.55;;;;;;;32.74;64.07;100483.00;5075668;28;71429;-31
2022/09/05 08:14:54;;;;;;;12.73;1.88;;;;;;;32.75;63.92;100485.47;5078832;27;66984;-32
2022/09/05 08:17:26;;;;;;;2.80;2.00;;;;;;;32.76;64.00;100470.81;5076230;27;70714;-34
2022/09/05 08:20:11;;;;;;;2.50;2.22;;;;;;;32.78;63.33;100463.25;5080640;27;68317;-33
2022/09/05 08:22:54;;;;;;;3.58;2.05;;;;;;;32.74;63.51;100467.53;5078217;27;70819;-32
2022/09/05 08:25:35;;;;;;;2.28;1.90;;;;;;;32.71;63.17;100452.53;5080223;27;66320;-32
2022/09/05 08:28:45;;;;;;;3.50;2.10;;;;;;;32.59;63.36;100438.16;5080297;28;70330;-33
2022/09/05 08:31:52;;;;;;;3.83;1.70;;;;;;;32.61;64.19;100435.22;5072842;28;66224;-32
2022/09/05 08:34:50;;;;;;;2.03;1.77;;;;;;;32.89;63.97;100464.25;5075821;28;71686;-32
2022/09/05 08:37:25;;;;;;;4.28;1.90;;;;;;;32.94;63.53;100454.31;5070669;28;67128;-31
2022/09/05 08:40:07;;;;;;;5.00;1.77;;;;;;;33.04;63.62;100461.00;5077765;27;70108;-33
2022/09/05 08:43:23;;;;;;;9.35;2.22;;;;;;;33.10;63.42;100469.03;5079200;27;66683;-32
2022/09/05 08:47:01;;;;;;;5.90;2.10;;;;;;;33.12;63.60;100472.28;5079280;27;71257;-32
2022/09/05 08:49:51;;;;;;;2.00;1.52;;;;;;;32.58;63.17;100354.25;5078116;27;66396;-32
2022/09/05 08:52:53;;;;;;;2.47;1.67;;;;;;;33.27;63.14;100469.03;5076158;28;71348;-32
2022/09/05 08:55:38;;;;;;;2.72;2.10;;;;;;;33.35;62.90;100463.19;5076764;27;67083;-32
2022/09/05 08:58:28;;;;;;;3.72;1.95;;;;;;;33.41;62.98;100463.28;5072759;28;70093;-32
2022/09/05 09:01:09;;;;;;;3.30;1.95;;;;;;;33.42;62.56;100463.00;5071701;28;66556;-32
2022/09/05 09:03:51;;;;;;;4.43;2.20;;;;;;;33.18;62.66;100427.00;5074963;28;70886;-32
2022/09/05 09:06:47;;;;;;;4.55;2.17;;;;;;;33.33;62.20;100443.56;5076680;28;67015;-32
2022/09/05 09:09:59;;;;;;;9.30;2.63;;;;;;;33.43;62.29;100459.22;5075607;28;71129;-32
2022/09/05 09:12:52;;;;;;;8.32;2.17;;;;;;;33.52;62.30;100446.91;5073924;28;66914;-32
2022/09/05 09:16:06;;;;;;;5.43;2.15;;;;;;;33.50;62.12;100442.75;5074377;28;69663;-33
2022/09/05 09:18:44;;;;;;;3.85;2.08;;;;;;;33.59;61.62;100463.03;5071916;28;66830;-32
2022/09/05 09:21:40;;;;;;;3.47;2.22;;;;;;;33.22;61.91;100402.88;5076105;28;70614;-34
2022/09/05 09:24:21;;;;;;;13.45;2.50;;;;;;;33.62;62.05;100446.22;5079946;27;66175;-32
2022/09/05 09:27:04;;;;;;;3.80;2.10;;;;;;;33.56;62.22;100463.53;5076391;27;70842;-34
2022/09/05 09:29:41;;;;;;;2.80;2.28;;;;;;;33.56;61.03;100479.84;5078810;28;67584;-33
2022/09/05 09:32:26;;;;;;;8.75;2.00;;;;;;;33.37;61.80;100460.19;5078129;28;70922;-32
2022/09/05 09:35:22;;;;;;;3.28;2.50;;;;;;;33.32;62.26;100474.56;5078338;27;67058;-34
2022/09/05 09:37:57;;;;;;;2.60;1.70;;;;;;;33.28;62.59;100467.13;5077888;28;70896;-33
2022/09/05 09:41:18;;;;;;;3.15;2.38;;;;;;;33.18;62.51;100473.22;5078808;27;66374;-33
2022/09/05 09:44:21;;;;;;;2.22;1.75;;;;;;;33.09;63.06;100480.13;5077153;28;69991;-32
2022/09/05 09:46:54;;;;;;;2.70;2.47;;;;;;;33.10;62.86;100493.47;5078094;27;65596;-33
2022/09/05 09:49:53;;;;;;;3.00;2.67;;;;;;;32.37;63.12;100380.97;5077416;27;71367;-33
2022/09/05 09:52:50;;;;;;;7.85;3.15;;;;;;;32.97;63.67;100488.31;5068904;28;67382;-34
2022/09/05 09:55:52;;;;;;;4.45;2.88;;;;;;;32.97;63.70;100498.38;5081854;27;71067;-34
2022/09/05 09:58:56;;;;;;;3.75;2.97;;;;;;;32.22;63.50;100372.56;5078220;27;67267;-32
2022/09/05 10:01:31;;;;;;;3.85;2.63;;;;;;;32.96;63.65;100499.41;5053197;28;70936;-36
2022/09/05 10:04:30;;;;;;;5.55;3.58;;;;;;;32.90;64.09;100507.50;5078638;28;67584;-34
2022/09/05 10:07:38;;;;;;;5.78;3.42;;;;;;;32.87;63.99;100505.22;5078081;28;71036;-34
2022/09/05 10:10:59;;;;;;;6.30;3.38;;;;;;;32.84;63.94;100511.16;5074330;28;66867;-35
2022/09/05 10:14:17;;;;;;;4.05;3.60;;;;;;;32.52;64.19;100480.13;5073539;28;71105;-33
2022/09/05 10:17:27;;;;;;;3.97;3.67;;;;;;;32.76;64.10;100519.69;5077096;27;66647;-33
2022/09/05 10:20:13;;;;;;;4.22;3.80;;;;;;;32.85;64.26;100534.56;5076402;28;71002;-33
2022/09/05 10:23:04;;;;;;;4.18;3.78;;;;;;;32.84;64.01;100532.88;5077382;28;65968;-32
2022/09/05 10:26:12;;;;;;;6.80;4.45;;;;;;;32.75;64.25;100523.47;5073340;28;69518;-32
2022/09/05 10:29:40;;;;;;;6.85;4.78;;;;;;;32.38;64.45;100480.38;5076900;27;65192;-32
2022/09/05 10:32:33;;;;;;;6.75;5.20;;;;;;;32.40;64.00;100472.81;5036662;28;70853;-33
2022/09/05 10:35:32;;;;;;;;;;;;;;;32.52;64.67;100534.44;5037628;28;66672;-32
2022/09/05 10:38:26;;;;;;;7.38;4.90;;;;;;;32.66;64.11;100530.38;5069692;28;71026;-35
2022/09/05 10:41:12;;;;;;;8.18;4.97;;;;;;;32.28;64.10;100480.13;5074474;27;66856;-33
2022/09/05 10:44:01;;;;;;;5.22;4.22;;;;;;;32.37;64.10;100494.16;5076428;27;69973;-32
2022/09/05 10:47:09;;;;;;;4.80;4.40;;;;;;;32.49;64.30;100531.13;5077894;28;68104;-33
2022/09/05 10:49:49;;;;;;;7.38;4.45;;;;;;;32.59;64.29;100567.69;5080266;28;70857;-33
2022/09/05 10:52:31;;;;;;;4.93;4.50;;;;;;;32.62;64.31;100578.88;5078569;28;67432;-33
2022/09/05 10:55:08;;;;;;;;;;;;;;;32.40;64.91;100594.97;5070391;28;70705;-33
2022/09/05 10:58:15;;;;;;;4.55;4.18;;;;;;;32.49;64.44;100615.28;5079566;27;67011;-35
2022/09/05 11:01:31;;;;;;;7.28;4.38;;;;;;;32.52;64.55;100622.13;5077091;27;70313;-32
2022/09/05 11:04:42;;;;;;;4.45;3.92;;;;;;;32.47;64.92;100619.31;5071870;28;65590;-33
2022/09/05 11:07:23;;;;;;;3.80;3.60;;;;;;;32.52;64.59;100624.03;5077290;28;71611;-33
2022/09/05 11:10:51;;;;;;;4.45;3.88;;;;;;;32.39;65.19;100636.72;5079426;28;66330;-33
2022/09/05 11:13:42;;;;;;;4.50;4.20;;;;;;;32.39;65.38;100633.19;5071902;28;70617;-33
2022/09/05 11:16:47;;;;;;;5.90;4.05;;;;;;;32.41;65.24;100631.91;5075144;28;66779;-34
2022/09/05 11:19:46;;;;;;;7.50;4.20;;;;;;;32.37;65.27;100641.56;5071321;28;70708;-33
2022/09/05 11:22:23;;;;;;;4.00;3.70;;;;;;;32.37;65.23;100638.03;5067730;27;67305;-32
2022/09/05 11:24:58;;;;;;;4.85;3.92;;;;;;;31.98;65.24;100577.97;5078053;27;70242;-34
2022/09/05 11:27:43;;;;;;;6.30;3.83;;;;;;;32.32;65.84;100649.63;5081036;27;66855;-33
2022/09/05 11:30:30;;;;;;;8.77;4.55;;;;;;;32.00;66.08;100597.56;5075543;28;71098;-33
2022/09/05 11:33:41;;;;;;;4.50;3.90;;;;;;;32.21;66.54;100666.72;5079702;27;66928;-33
2022/09/05 11:36:45;;;;;;;5.07;4.22;;;;;;;32.29;66.45;100671.81;5094376;27;71813;-33
2022/09/05 11:39:54;;;;;;;4.30;3.90;;;;;;;32.27;66.95;100677.47;5074420;28;66689;-33
2022/09/05 11:43:23;;;;;;;5.30;4.63;;;;;;;32.18;67.11;100688.88;5067104;28;70868;-34
2022/09/05 11:46:15;;;;;;;6.05;4.32;;;;;;;32.24;66.99;100685.25;5072746;28;67361;-32
2022/09/05 11:49:24;;;;;;;6.13;4.30;;;;;;;32.16;67.45;100697.25;5070672;28;69443;-32
2022/09/05 11:52:16;;;;;;;9.15;4.97;;;;;;;32.12;68.00;100706.09;5074600;28;66511;-34
2022/09/05 11:55:19;;;;;;;4.95;4.00;;;;;;;32.13;68.05;100710.47;5037172;28;71519;-32
2022/09/05 11:58:09;;;;;;;5.70;4.13;;;;;;;32.12;68.34;100711.53;5075204;28;66496;-32
2022/09/05 12:01:32;;;;;;;5.72;4.38;;;;;;;32.10;68.60;100716.38;5078107;27;69871;-33
2022/09/05 12:04:28;;;;;;;4.43;3.95;;;;;;;32.11;68.43;100729.69;5062569;28;66205;-35
2022/09/05 12:07:15;;;;;;;5.28;3.50;;;;;;;32.10;69.33;100729.94;5072714;28;70039;-33
2022/09/05 12:10:13;;;;;;;6.00;3.85;;;;;;;32.10;70.32;100733.47;5079656;28;66209;-34
2022/09/05 12:13:34;;;;;;;12.05;4.72;;;;;;;32.08;71.02;100748.34;5072937;28;70921;-33
2022/09/05 12:16:20;;;;;;;10.55;5.50;;;;;;;31.70;71.28;100687.09;5095037;27;67009;-34
2022/09/05 12:19:21;;;;;;;12.60;4.88;;;;;;;31.79;71.71;100699.28;5077938;28;71087;-32
2022/09/05 12:22:11;;;;;;;9.35;5.60;;;;;;;32.16;71.37;100764.28;5077292;28;66298;-32
2022/09/05 12:25:15;;;;;;;11.77;4.32;;;;;;;32.11;71.30;100756.84;5077622;28;70422;-33
2022/09/05 12:28:16;;;;;;;12.02;5.13;;;;;;;32.00;70.93;100744.88;5076085;28;66686;-33
2022/09/05 12:31:26;;;;;;;7.72;5.38;;;;;;;32.00;71.32;100753.03;5075711;28;70815;-33
2022/09/05 12:35:02;;;;;;;6.53;5.68;;;;;;;31.76;72.05;100753.94;5073758;28;66219;-36
2022/09/05 12:38:18;;;;;;;7.93;5.75;;;;;;;31.87;71.90;100745.03;5063156;28;70504;-39
2022/09/05 12:41:35;;;;;;;7.90;4.93;;;;;;;31.92;72.24;100768.78;5085446;27;66881;-34
2022/09/05 12:44:46;;;;;;;6.75;4.78;;;;;;;31.55;72.13;100693.75;5076523;27;70751;-32
2022/09/05 12:47:22;;;;;;;8.10;4.90;;;;;;;32.04;72.13;100762.38;5076181;28;66797;-33
2022/09/05 12:49:58;;;;;;;4.80;4.35;;;;;;;32.05;72.19;100771.31;5074977;28;70280;-34
2022/09/05 12:52:43;;;;;;;4.95;4.25;;;;;;;31.73;72.08;100719.16;5078333;27;66909;-32
2022/09/05 12:56:02;;;;;;;6.38;4.38;;;;;;;31.93;70.69;100787.56;5072099;28;70816;-33
2022/09/05 12:58:56;;;;;;;10.50;3.72;;;;;;;31.81;69.08;100763.06;5066953;28;66782;-32
2022/09/05 13:02:02;;;;;;;7.00;4.53;;;;;;;31.35;68.20;100696.69;5076764;28;71140;-35
2022/09/05 13:05:00;;;;;;;8.02;4.50;;;;;;;31.38;66.45;100712.53;5075985;27;66702;-33
2022/09/05 13:07:44;;;;;;;11.10;4.90;;;;;;;31.57;66.67;100762.13;5076677;27;71338;-32
2022/09/05 13:10:23;;;;;;;17.70;3.80;;;;;;;31.09;65.71;100706.00;5074026;28;67030;-32
2022/09/05 13:13:26;;;;;;;7.97;3.80;;;;;;;31.42;65.33;100775.25;5076129;28;70752;-32
2022/09/05 13:16:22;;;;;;;10.35;3.88;;;;;;;31.35;64.14;100790.75;5073761;27;67210;-33
2022/09/05 13:19:07;;;;;;;7.05;3.47;;;;;;;31.27;63.23;100796.44;5075426;28;70811;-35
2022/09/05 13:21:48;;;;;;;10.70;4.70;;;;;;;30.76;63.44;100721.69;5073077;27;67071;-32
2022/09/05 13:24:41;;;;;;;4.45;3.75;;;;;;;31.08;62.50;100801.84;5075649;28;71061;-34
2022/09/05 13:27:25;;;;;;;14.80;3.92;;;;;;;31.11;62.12;100803.28;5074407;27;66855;-33
2022/09/05 13:30:06;;;;;;;9.88;3.88;;;;;;;31.05;62.23;100801.47;5074143;27;70167;-36
2022/09/05 13:33:23;;;;;;;10.77;4.07;;;;;;;30.92;61.96;100814.09;5072021;27;66842;-33
2022/09/05 13:36:25;;;;;;;12.35;4.30;;;;;;;30.70;61.04;100791.13;5079465;28;70230;-33
2022/09/05 13:39:27;;;;;;;28.40;4.57;;;;;;;30.77;60.46;100788.38;5062567;28;66920;-37